tititudorancea.com
Station Historical Data
Daily Summary for February 25, 2018 Units:  Metric    English   Both
« Previous Day
Next Day »
Daily Weekly Monthly Yearly Custom
  High: Low: Average:
Temperature: -17.8 °C 11.3 °C 14.2 °C
Dew Point: -17.8 °C 5.5 °C 8.2 °C
Humidity: Humidity % 40 % 69 %
Wind Speed: 0 km/h 0 km/h 15.4 km/h
Wind Gust: 0 km/h - -
Wind:- - South
Pressure: 0 hPa 1009 hPa -
Precipitation: 0 mm    
Historical Graphs
 
 
Ararat weather Find more about Weather in Ararat, AU


 



 


Tabular Data for February 25, 2018
Time Temperature Dew Point Pressure Wind Wind Speed Wind Gust Humidity Rainfall Rate (Hourly)
-17.8 °C -17.8 °C 0 hPa Calm     Humidity % 0 mm
00:02 13.6 °C 10.2 °C 1009 hPa South 17.1 km/h 25.9 km/h 80 % 0 mm
00:07 13.7 °C 9.9 °C 1009 hPa South 13.2 km/h 27.8 km/h 78 % 0 mm
00:12 13.8 °C 10 °C 1009 hPa South 12.1 km/h 22.2 km/h 78 % 0 mm
00:17 13.8 °C 10.2 °C 1009 hPa South 12.1 km/h 16.1 km/h 79 % 0 mm
00:22 13.8 °C 10.2 °C 1009 hPa South 10.9 km/h 18.5 km/h 79 % 0 mm
00:27 13.8 °C 10.2 °C 1009 hPa South 11.4 km/h 20.4 km/h 79 % 0 mm
00:32 13.7 °C 9.9 °C 1009 hPa South 11.1 km/h 18.5 km/h 78 % 0 mm
00:37 13.8 °C 9.8 °C 1009 hPa SSE 8.4 km/h 20.4 km/h 77 % 0 mm
00:42 13.8 °C 9.9 °C 1009 hPa SSE 7.9 km/h 24.1 km/h 77 % 0 mm
00:47 13.8 °C 9.9 °C 1009 hPa SSE 10.3 km/h 16.7 km/h 77 % 0 mm
00:52 13.8 °C 10.1 °C 1009 hPa South 8.7 km/h 16.7 km/h 78 % 0 mm
00:57 13.8 °C 10.1 °C 1009 hPa South 17.2 km/h 19.3 km/h 78 % 0 mm
01:02 13.7 °C 10.2 °C 1009 hPa North 12.9 km/h 22.2 km/h 79 % 0 mm
01:07 13.6 °C 10.2 °C 1009 hPa South 17.5 km/h 27.8 km/h 80 % 0 mm
01:12 13.6 °C 10.4 °C 1009 hPa SSE 13.7 km/h 20.4 km/h 81 % 0 mm
01:17 13.6 °C 10.3 °C 1009 hPa North 18.3 km/h 22.2 km/h 81 % 0 mm
01:22 13.6 °C 10.6 °C 1009 hPa South 13.4 km/h 25.9 km/h 82 % 0 mm
01:27 13.6 °C 10.6 °C 1009 hPa SSW 13 km/h 22.2 km/h 82 % 0 mm
01:32 13.6 °C 10.6 °C 1009 hPa South 13.8 km/h 24.1 km/h 82 % 0 mm
01:37 13.6 °C 10.6 °C 1009 hPa South 11.6 km/h 18.5 km/h 82 % 0 mm
01:42 13.6 °C 10.7 °C 1009 hPa South 15.6 km/h 16.7 km/h 83 % 0 mm
01:47 13.5 °C 10.7 °C 1009 hPa SSW 12.6 km/h 14.8 km/h 83 % 0 mm
01:52 13.5 °C 10.5 °C 1009 hPa South 12.7 km/h 18.5 km/h 82 % 0 mm
01:57 13.5 °C 10.5 °C 1009 hPa South 13.4 km/h 16.7 km/h 82 % 0 mm
02:02 13.5 °C 10.5 °C 1009 hPa South 13.5 km/h 16.7 km/h 82 % 0 mm
02:07 13.6 °C 10.6 °C 1009 hPa North 13.7 km/h 19.3 km/h 82 % 0 mm
02:12 13.6 °C 10.3 °C 1009 hPa South 9.7 km/h 18.5 km/h 81 % 0 mm
02:17 13.6 °C 10.3 °C 1009 hPa South 6.9 km/h 20.4 km/h 81 % 0 mm
02:22 13.6 °C 10.2 °C 1009 hPa South 11.1 km/h 16.1 km/h 80 % 0 mm
02:27 13.6 °C 10.2 °C 1009 hPa SSW 11.3 km/h 16.1 km/h 80 % 0 mm
02:32 13.6 °C 10.2 °C 1009 hPa South 14.5 km/h 22.2 km/h 80 % 0 mm
02:37 13.6 °C 10.1 °C 1009 hPa South 10.6 km/h 20.4 km/h 79 % 0 mm
02:42 13.6 °C 9.8 °C 1009 hPa South 8.7 km/h 20.4 km/h 78 % 0 mm
02:47 13.6 °C 9.8 °C 1009 hPa South 14 km/h 22.2 km/h 78 % 0 mm
02:52 13.6 °C 9.8 °C 1009 hPa South 12.4 km/h 17.7 km/h 78 % 0 mm
02:57 13.6 °C 9.8 °C 1009 hPa South 15 km/h 18.5 km/h 78 % 0 mm
03:02 13.6 °C 9.8 °C 1009 hPa South 13.4 km/h 24.1 km/h 78 % 0 mm
03:07 13.5 °C 10.1 °C 1009 hPa South 18.3 km/h 27.4 km/h 80 % 0 mm
03:12 13.1 °C 10.1 °C 1009 hPa South 14.5 km/h 24.1 km/h 82 % 0 mm
03:17 12.9 °C 10.2 °C 1009 hPa South 12.2 km/h 14.8 km/h 84 % 0 mm
03:22 12.8 °C 10.2 °C 1009 hPa South 5.6 km/h 18.5 km/h 84 % 0 mm
03:27 12.8 °C 10.3 °C 1009 hPa North 8.9 km/h 18.5 km/h 85 % 0 mm
03:32 12.8 °C 10.3 °C 1009 hPa North 9.2 km/h 18.5 km/h 85 % 0 mm
03:37 12.7 °C 10.4 °C 1009.4 hPa South 12.4 km/h 19.3 km/h 86 % 0 mm
03:42 12.5 °C 10.4 °C 1009.4 hPa North 12.4 km/h 18.5 km/h 87 % 0 mm
03:48 12.4 °C 10.4 °C 1009.4 hPa South 9.5 km/h 16.7 km/h 88 % 0 mm
03:52 12.3 °C 10.5 °C 1009 hPa North 7.6 km/h 16.7 km/h 89 % 0 mm
03:57 12.2 °C 10.6 °C 1009 hPa SSE 9.5 km/h 14.8 km/h 90 % 0 mm
04:03 12.2 °C 10.7 °C 1009 hPa North 14.2 km/h 16.7 km/h 91 % 0 mm
04:08 12.1 °C 10.6 °C 1009 hPa South 10.3 km/h 18.5 km/h 91 % 0 mm
04:13 12 °C 10.6 °C 1009 hPa SSE 13.5 km/h 18.5 km/h 91 % 0 mm
04:17 12.1 °C 10.6 °C 1009 hPa North 15 km/h 20.4 km/h 91 % 0 mm
04:22 12.1 °C 10.7 °C 1009 hPa North 13.4 km/h 22.2 km/h 91 % 0 mm
04:28 12.1 °C 10.7 °C 1009 hPa North 14.3 km/h 22.2 km/h 91 % 0 mm
04:33 12.2 °C 10.7 °C 1009 hPa North 15.6 km/h 17.7 km/h 91 % 0 mm
04:38 12.2 °C 10.9 °C 1009 hPa South 15.3 km/h 15.3 km/h 92 % 0 mm
04:43 12.3 °C 10.8 °C 1009 hPa South 10.5 km/h 18.5 km/h 91 % 0 mm
04:48 12.3 °C 10.9 °C 1009 hPa South 12.2 km/h 18.5 km/h 91 % 0 mm
04:53 12.4 °C 10.9 °C 1009 hPa North 12.4 km/h 18.5 km/h 91 % 0 mm
04:58 12.4 °C 10.9 °C 1009 hPa South 14 km/h 18.5 km/h 91 % 0 mm
05:03 12.4 °C 11 °C 1009 hPa SSE 13.7 km/h 22.2 km/h 91 % 0 mm
05:08 12.5 °C 10.9 °C 1009 hPa North 15.4 km/h 22.2 km/h 90 % 0 mm
05:13 12.6 °C 10.9 °C 1009 hPa North 9.8 km/h 18.5 km/h 90 % 0 mm
05:18 12.6 °C 10.9 °C 1009 hPa North 12.1 km/h 16.7 km/h 90 % 0 mm
05:23 12.6 °C 10.9 °C 1009 hPa South 11.4 km/h 18.5 km/h 90 % 0 mm
05:28 12.6 °C 10.8 °C 1009 hPa South 15.9 km/h 20.4 km/h 89 % 0 mm
05:33 12.6 °C 10.8 °C 1009 hPa South 15.8 km/h 18.5 km/h 89 % 0 mm
05:38 12.6 °C 10.8 °C 1009 hPa North 9.8 km/h 18.5 km/h 89 % 0 mm
05:43 12.6 °C 10.6 °C 1009.4 hPa South 11.7 km/h 18.5 km/h 88 % 0 mm
05:48 12.5 °C 10.4 °C 1009.4 hPa South 16.9 km/h 25.9 km/h 87 % 0 mm
05:53 12.4 °C 10.3 °C 1009.4 hPa North 15.4 km/h 24.1 km/h 87 % 0 mm
05:58 12.4 °C 10.7 °C 1009.4 hPa South 13.4 km/h 18.5 km/h 89 % 0 mm
06:03 12.4 °C 10.2 °C 1009.4 hPa South 16.3 km/h 25.9 km/h 86 % 0 mm
06:08 12.4 °C 10 °C 1009.4 hPa South 13.7 km/h 24.1 km/h 85 % 0 mm
06:13 12.4 °C 10 °C 1009.7 hPa South 13.5 km/h 20.4 km/h 85 % 0 mm
06:18 12.5 °C 9.9 °C 1009.7 hPa South 15.6 km/h 24.1 km/h 84 % 0 mm
06:23 12.5 °C 9.9 °C 1009.7 hPa South 13.8 km/h 24.1 km/h 84 % 0 mm
06:28 12.6 °C 9.9 °C 1009.7 hPa North 11.3 km/h 18.5 km/h 84 % 0 mm
06:33 12.6 °C 9.8 °C 1009.7 hPa SSE 18 km/h 24.1 km/h 83 % 0 mm
06:38 12.6 °C 9.6 °C 1010 hPa South 12.1 km/h 18.5 km/h 82 % 0 mm
06:43 12.6 °C 9.6 °C 1010 hPa South 15.1 km/h 29.6 km/h 82 % 0 mm
06:48 12.6 °C 9.6 °C 1010 hPa South 12.1 km/h 16.7 km/h 82 % 0 mm
06:53 12.6 °C 9.6 °C 1010 hPa South 15 km/h 20.4 km/h 82 % 0 mm
06:58 12.5 °C 9.5 °C 1010 hPa South 10.8 km/h 24.1 km/h 82 % 0 mm
07:03 12.4 °C 9.4 °C 1010 hPa SSE 14.3 km/h 20.4 km/h 82 % 0 mm
07:08 12.3 °C 9.3 °C 1010 hPa South 14.3 km/h 18.5 km/h 82 % 0 mm
07:13 12.2 °C 9.2 °C 1010 hPa South 9.5 km/h 16.1 km/h 82 % 0 mm
07:18 12.2 °C 9.2 °C 1010 hPa South 11.9 km/h 18.5 km/h 82 % 0 mm
07:23 12.1 °C 9.1 °C 1010.4 hPa South 13.7 km/h 18.5 km/h 82 % 0 mm
07:28 12 °C 9 °C 1010.4 hPa South 14.6 km/h 22.2 km/h 82 % 0 mm
07:33 12.1 °C 9.1 °C 1010.4 hPa South 17.5 km/h 29.6 km/h 82 % 0 mm
07:38 12.1 °C 9.1 °C 1010.4 hPa North 11.7 km/h 18.5 km/h 82 % 0 mm
07:43 12.2 °C 9.2 °C 1010.4 hPa North 17.1 km/h 27.8 km/h 82 % 0 mm
07:48 12.3 °C 9.3 °C 1010.4 hPa South 17.4 km/h 24.1 km/h 82 % 0 mm
07:53 12.4 °C 9.4 °C 1010.4 hPa South 16.3 km/h 29.6 km/h 82 % 0 mm
07:58 12.5 °C 9.3 °C 1010.7 hPa South 17.7 km/h 29.6 km/h 81 % 0 mm
08:03 12.6 °C 9.4 °C 1010.7 hPa South 18.7 km/h 29.6 km/h 81 % 0 mm
08:05 12.7 °C 9.5 °C 1010.7 hPa North 18 km/h 29.6 km/h 81 % 0 mm
08:10 12.7 °C 9.3 °C 1010.7 hPa South 20.4 km/h 27.8 km/h 80 % 0 mm
08:15 12.8 °C 9.4 °C 1010.7 hPa SSW 17.4 km/h 29.6 km/h 80 % 0 mm
08:20 12.9 °C 9.4 °C 1010.7 hPa South 18.3 km/h 31.5 km/h 79 % 0 mm
08:25 13.1 °C 9.3 °C 1010.7 hPa SE 22.9 km/h 42.6 km/h 78 % 0 mm
08:30 13.1 °C 9.3 °C 1011.1 hPa SSE 19.5 km/h 27.8 km/h 78 % 0 mm
08:31 13.2 °C 9.4 °C 1011.1 hPa SE 15.6 km/h 20.4 km/h 78 % 0 mm
08:36 13.2 °C 9.1 °C 1011.1 hPa South 13.7 km/h 19.3 km/h 76 % 0 mm
08:41 13.3 °C 9.4 °C 1011.1 hPa South 10.6 km/h 18.5 km/h 77 % 0 mm
08:45 13.4 °C 8.8 °C 1011.1 hPa South 22.9 km/h 25.7 km/h 74 % 0 mm
08:50 13.4 °C 8.8 °C 1011.1 hPa SE 22.4 km/h 35.2 km/h 74 % 0 mm
08:55 13.4 °C 8.7 °C 1011.1 hPa SSE 12.4 km/h 24.1 km/h 73 % 0 mm
09:00 13.6 °C 8.6 °C 1011.1 hPa SSE 16.6 km/h 40.7 km/h 72 % 0 mm
09:05 13.6 °C 8.8 °C 1011.1 hPa South 17.2 km/h 33.8 km/h 73 % 0 mm
09:08 13.6 °C 8.6 °C 1011.1 hPa South 18.2 km/h 31.5 km/h 72 % 0 mm
09:13 13.4 °C 7.9 °C 1011.1 hPa South 20.3 km/h 35.2 km/h 69 % 0 mm
09:18 13.4 °C 7.9 °C 1011.4 hPa SSE 19.2 km/h 37 km/h 69 % 0 mm
09:23 13.6 °C 8.2 °C 1011.4 hPa South 25.7 km/h 37 km/h 70 % 0 mm
09:25 13.6 °C 8.2 °C 1011.4 hPa South 21.7 km/h 30.6 km/h 70 % 0 mm
09:30 13.6 °C 8.2 °C 1011.4 hPa South 20.6 km/h 37 km/h 70 % 0 mm
09:35 13.6 °C 7.8 °C 1011.4 hPa South 16.6 km/h 29.6 km/h 68 % 0 mm
09:40 13.7 °C 7.7 °C 1011.4 hPa SSE 16.4 km/h 27.8 km/h 67 % 0 mm
09:42 13.8 °C 7.6 °C 1011.4 hPa South 16.4 km/h 40.7 km/h 66 % 0 mm
09:47 13.6 °C 6.9 °C 1011.4 hPa SSE 16.3 km/h 38.9 km/h 64 % 0 mm
09:52 13.9 °C 7.4 °C 1011.4 hPa SSW 18.3 km/h 29.6 km/h 65 % 0 mm
09:55 13.9 °C 7.4 °C 1011.4 hPa SSW 23.2 km/h 40.7 km/h 65 % 0 mm
14:33 18.7 °C 5.8 °C 1011.1 hPa SSE 29.6 km/h 29.6 km/h 43 % 0 mm
14:35 18.7 °C 5.8 °C 1011.4 hPa SSE 29.6 km/h 32.2 km/h 43 % 0 mm
14:40 18.7 °C 5.9 °C 1011.1 hPa SSE 28.3 km/h 38.6 km/h 43 % 0 mm
14:45 18.7 °C 5.9 °C 1011.4 hPa North 26.2 km/h 38.9 km/h 43 % 0 mm
14:50 18.8 °C 6 °C 1011.1 hPa South 16.4 km/h 24.1 km/h 43 % 0 mm
14:55 19.1 °C 5.9 °C 1011.1 hPa SSW 21.1 km/h 29.6 km/h 42 % 0 mm
15:01 19.2 °C 5.9 °C 1011.1 hPa SSE 24.3 km/h 40.7 km/h 42 % 0 mm
15:06 19.3 °C 6.1 °C 1011.1 hPa SSE 26.1 km/h 41.8 km/h 42 % 0 mm
15:11 18.9 °C 6.1 °C 1011.1 hPa SE 22.7 km/h 35.4 km/h 43 % 0 mm
15:16 19.4 °C 5.8 °C 1011.1 hPa SSE 23 km/h 46.3 km/h 41 % 0 mm
15:21 19.5 °C 5.9 °C 1011.1 hPa SE 21.4 km/h 37 km/h 41 % 0 mm
15:26 19.2 °C 6.3 °C 1011.1 hPa South 22.9 km/h 42.6 km/h 43 % 0 mm
15:31 19.4 °C 6.1 °C 1010.7 hPa South 20.4 km/h 37 km/h 42 % 0 mm
15:36 19.4 °C 5.5 °C 1010.7 hPa SSE 23 km/h 31.5 km/h 40 % 0 mm
15:41 19.5 °C 6.2 °C 1010.7 hPa South 25.7 km/h 38.9 km/h 42 % 0 mm
15:46 19.3 °C 6.1 °C 1010.7 hPa South 25.4 km/h 44.4 km/h 42 % 0 mm
15:51 19.3 °C 5.7 °C 1010.7 hPa SSE 30.3 km/h 40.7 km/h 41 % 0 mm
15:56 19.4 °C 5.8 °C 1010.7 hPa SSE 23.3 km/h 37 km/h 41 % 0 mm
15:59 19.5 °C 6.6 °C 1010.4 hPa SSE 17.9 km/h 33.3 km/h 43 % 0 mm
16:01 19.5 °C 6.6 °C 1010.4 hPa SSE 17.9 km/h 33.3 km/h 43 % 0 mm
16:06 19.5 °C 6.6 °C 1010.4 hPa SSE 17.9 km/h 33.3 km/h 43 % 0 mm
16:11 19.4 °C 6.2 °C 1010.7 hPa Calm   27.4 km/h 42 % 0 mm
16:30 19.6 °C 6.3 °C 1010.7 hPa South 27.8 km/h 33.8 km/h 42 % 0 mm
16:35 19.4 °C 6.1 °C 1010.4 hPa South 17.5 km/h 33.3 km/h 42 % 0 mm
16:40 19.3 °C 6.4 °C 1010.7 hPa SE 17.9 km/h 38.9 km/h 43 % 0 mm
16:41 19.3 °C 6.1 °C 1010.7 hPa SSE 29.3 km/h 42.6 km/h 42 % 0 mm
16:46 19.2 °C 6.3 °C 1010.7 hPa SSE 19.2 km/h 29.6 km/h 43 % 0 mm
16:51 19.1 °C 5.8 °C 1010.7 hPa SSE 28.3 km/h 40.7 km/h 42 % 0 mm
16:56 18.9 °C 6.4 °C 1010.7 hPa South 17.7 km/h 25.9 km/h 44 % 0 mm
17:01 19.1 °C 6.2 °C 1010.7 hPa SSE 21.6 km/h 25.9 km/h 43 % 0 mm
17:06 19.1 °C 6.2 °C 1010.7 hPa SSE 20.4 km/h 40.7 km/h 43 % 0 mm
17:11 19.1 °C 6.6 °C 1010.7 hPa SSE 14.6 km/h 27.8 km/h 44 % 0 mm
17:16 19 °C 6.4 °C 1010.7 hPa SSE 21.4 km/h 37 km/h 44 % 0 mm
17:21 19.1 °C 6.2 °C 1010.7 hPa SSE 23.3 km/h 27.8 km/h 43 % 0 mm
17:26 19.2 °C 6.3 °C 1011.1 hPa SSE 21.2 km/h 35.2 km/h 43 % 0 mm
17:31 18.8 °C 5.9 °C 1011.1 hPa SSE 22.2 km/h 42.6 km/h 43 % 0 mm
17:36 18.9 °C 6.4 °C 1011.1 hPa SE 19.2 km/h 31.5 km/h 44 % 0 mm
17:41 19 °C 6.4 °C 1011.1 hPa SSE 22 km/h 42.6 km/h 44 % 0 mm
17:46 18.6 °C 6.1 °C 1011.4 hPa SSE 21.1 km/h 38.9 km/h 44 % 0 mm
17:51 18.4 °C 5.9 °C 1011.4 hPa SSE 21.1 km/h 44.4 km/h 44 % 0 mm
17:56 18.6 °C 6.4 °C 1011.4 hPa SSE 17.9 km/h 31.5 km/h 45 % 0 mm
18:01 18.4 °C 6.3 °C 1011.4 hPa South 22.4 km/h 35.2 km/h 45 % 0 mm
18:06 18.3 °C 5.8 °C 1011.4 hPa SE 21.1 km/h 29.6 km/h 44 % 0 mm
18:11 18 °C 5.9 °C 1011.4 hPa South 18.2 km/h 35.2 km/h 45 % 0 mm
18:16 17.9 °C 6.4 °C 1011.4 hPa South 19.2 km/h 42.6 km/h 47 % 0 mm
18:21 18.1 °C 6.9 °C 1011.4 hPa SSE 24.8 km/h 35.2 km/h 48 % 0 mm
18:26 18 °C 7.1 °C 1011.7 hPa SE 21.4 km/h 42.6 km/h 49 % 0 mm
18:31 17.7 °C 7.1 °C 1011.7 hPa SSE 21.6 km/h 37 km/h 50 % 0 mm
18:37 17.6 °C 7.3 °C 1011.7 hPa SSE 23.2 km/h 35.2 km/h 51 % 0 mm
18:42 17.4 °C 7.2 °C 1011.7 hPa SSE 27.7 km/h 38.9 km/h 51 % 0 mm
18:47 17.2 °C 7 °C 1012.1 hPa SSE 25.7 km/h 40.7 km/h 51 % 0 mm
18:52 16.9 °C 7 °C 1012.1 hPa SSE 16.7 km/h 25.9 km/h 52 % 0 mm
18:57 16.6 °C 6.7 °C 1012.1 hPa SE 18.8 km/h 25.9 km/h 52 % 0 mm
19:02 16.6 °C 7 °C 1012.1 hPa SE 17.7 km/h 31.5 km/h 53 % 0 mm
19:07 16.4 °C 6.8 °C 1012.1 hPa SSE 17.1 km/h 29.6 km/h 53 % 0 mm
19:12 16.2 °C 6.8 °C 1012.4 hPa SE 24.5 km/h 33.3 km/h 54 % 0 mm
19:17 15.9 °C 6.9 °C 1012.4 hPa SE 19.3 km/h 33.3 km/h 55 % 0 mm
19:22 15.9 °C 6.9 °C 1012.4 hPa ESE 18.8 km/h 33.8 km/h 55 % 0 mm
19:27 15.9 °C 6.9 °C 1012.4 hPa SE 20.3 km/h 40.7 km/h 55 % 0 mm
19:32 15.8 °C 7.3 °C 1012.8 hPa SSE 11.9 km/h 25.7 km/h 57 % 0 mm
19:37 15.6 °C 7.1 °C 1012.8 hPa SSE 16.7 km/h 33.3 km/h 57 % 0 mm
19:42 15.4 °C 6.9 °C 1012.8 hPa South 17.5 km/h 27.8 km/h 57 % 0 mm
19:47 15.2 °C 6.8 °C 1013.1 hPa SSE 14.2 km/h 22.2 km/h 57 % 0 mm
19:52 15 °C 6.8 °C 1013.1 hPa South 13.5 km/h 31.5 km/h 58 % 0 mm
19:57 14.8 °C 6.7 °C 1013.1 hPa SSE 16.4 km/h 27.8 km/h 58 % 0 mm
20:02 14.7 °C 6.5 °C 1013.1 hPa SSE 20.8 km/h 20.8 km/h 58 % 0 mm
20:07 14.5 °C 6.6 °C 1013.1 hPa South 24 km/h 37 km/h 59 % 0 mm
20:12 14.3 °C 6.4 °C 1013.4 hPa South 17.1 km/h 24.1 km/h 59 % 0 mm
20:17 14.2 °C 6.3 °C 1013.4 hPa SSW 17.5 km/h 25.7 km/h 59 % 0 mm
20:22 14.1 °C 6.4 °C 1013.4 hPa SSE 13.2 km/h 25.9 km/h 60 % 0 mm
20:27 13.9 °C 6.2 °C 1013.4 hPa South 15.4 km/h 25.9 km/h 60 % 0 mm
20:32 13.8 °C 6.4 °C 1013.4 hPa South 15 km/h 24.1 km/h 61 % 0 mm
20:37 13.7 °C 6.3 °C 1013.4 hPa South 13 km/h 22.2 km/h 61 % 0 mm
20:42 13.6 °C 6.4 °C 1013.8 hPa South 16.7 km/h 24.1 km/h 62 % 0 mm
20:47 13.4 °C 6.6 °C 1013.8 hPa SSE 13.8 km/h 20.4 km/h 63 % 0 mm
20:52 13.3 °C 6.7 °C 1013.8 hPa SSE 15 km/h 18.5 km/h 64 % 0 mm
20:57 13.2 °C 6.8 °C 1013.8 hPa SSE 12.6 km/h 22.2 km/h 65 % 0 mm
21:02 13.2 °C 6.9 °C 1013.8 hPa South 14 km/h 24.1 km/h 66 % 0 mm
21:07 13.1 °C 6.9 °C 1014.1 hPa South 10.3 km/h 20.4 km/h 66 % 0 mm
21:12 13 °C 7 °C 1013.8 hPa South 10.8 km/h 18.5 km/h 67 % 0 mm
21:17 12.9 °C 6.9 °C 1014.1 hPa South 10.8 km/h 18.5 km/h 67 % 0 mm
21:22 12.8 °C 6.8 °C 1014.1 hPa SSE 10.6 km/h 10.6 km/h 67 % 0 mm
21:27 12.7 °C 6.9 °C 1014.1 hPa SSE 12.9 km/h 18.5 km/h 68 % 0 mm
21:32 12.6 °C 6.8 °C 1014.1 hPa South 8.9 km/h 11.3 km/h 68 % 0 mm
21:37 12.4 °C 6.7 °C 1014.1 hPa South 8.2 km/h 14.8 km/h 68 % 0 mm
21:42 12.3 °C 6.8 °C 1014.4 hPa SSE 10.1 km/h 16.1 km/h 69 % 0 mm
21:47 12.2 °C 6.7 °C 1014.1 hPa SSE 9.3 km/h 14.8 km/h 69 % 0 mm
21:52 12 °C 6.7 °C 1014.4 hPa South 10.5 km/h 14.8 km/h 70 % 0 mm
21:57 11.9 °C 6.7 °C 1014.4 hPa SSE 10.1 km/h 18.5 km/h 70 % 0 mm
22:02 11.9 °C 6.8 °C 1014.4 hPa South 11.9 km/h 18.5 km/h 71 % 0 mm
22:08 11.8 °C 6.9 °C 1014.4 hPa South 12.6 km/h 20.4 km/h 72 % 0 mm
22:13 11.8 °C 6.9 °C 1014.4 hPa South 12.1 km/h 16.7 km/h 72 % 0 mm
22:18 11.7 °C 7.1 °C 1014.4 hPa South 8.5 km/h 14.8 km/h 73 % 0 mm
22:23 11.7 °C 7.2 °C 1014.8 hPa South 9 km/h 16.7 km/h 74 % 0 mm
22:28 11.6 °C 7.1 °C 1014.8 hPa South 7.1 km/h 13 km/h 74 % 0 mm
22:32 11.6 °C 7.3 °C 1014.4 hPa South 13.2 km/h 25.9 km/h 75 % 0 mm
22:37 11.6 °C 7.4 °C 1014.8 hPa South 8.4 km/h 14.8 km/h 76 % 0 mm
22:42 11.5 °C 7.4 °C 1014.8 hPa South 8.4 km/h 16.7 km/h 76 % 0 mm
22:47 11.4 °C 7.6 °C 1014.4 hPa South 8.5 km/h 14.8 km/h 77 % 0 mm
22:53 11.3 °C 7.6 °C 1014.4 hPa South 10.9 km/h 14.8 km/h 78 % 0 mm
22:58 11.3 °C 7.8 °C 1014.4 hPa South 12.1 km/h 16.7 km/h 79 % 0 mm
23:03 11.3 °C 7.9 °C 1014.4 hPa South 10.6 km/h 18.5 km/h 80 % 0 mm
23:08 11.3 °C 8 °C 1014.4 hPa South 7.9 km/h 11.1 km/h 80 % 0 mm
23:13 11.4 °C 8.1 °C 1014.4 hPa SSE 12.9 km/h 20.4 km/h 80 % 0 mm
23:18 11.4 °C 8.3 °C 1014.4 hPa North 12.4 km/h 18.5 km/h 81 % 0 mm
23:23 11.5 °C 8.3 °C 1014.4 hPa SSW 10 km/h 22.2 km/h 81 % 0 mm
23:28 11.6 °C 8.4 °C 1014.1 hPa South 11.9 km/h 20.4 km/h 81 % 0 mm
23:33 11.6 °C 8.4 °C 1014.1 hPa South 10.1 km/h 16.1 km/h 81 % 0 mm
23:38 11.5 °C 8.3 °C 1014.4 hPa South 11.4 km/h 18.5 km/h 81 % 0 mm
23:43 11.5 °C 8.3 °C 1014.4 hPa South 9.2 km/h 16.7 km/h 81 % 0 mm
23:48 11.5 °C 8.3 °C 1014.4 hPa South 11.4 km/h 16.7 km/h 81 % 0 mm
23:53 11.5 °C 8.3 °C 1014.4 hPa South 6.8 km/h 14.8 km/h 81 % 0 mm
23:58 11.5 °C 8.3 °C 1014.4 hPa South 6.8 km/h 13 km/h 81 % 0 mm
Ararat Weather
Compliments of Weather Underground - 2 mb
Click here to send mail.


ABOUT

Live weather data from Ararat, Victoria, Australia, 3377
Data uploaded from Cumulus every 5 minutes to Weather Underground.
This site then downloads the raw data for formatting and display.
Metric and imperial data can be displayed. Graphs and historical data available.
Includes Sun and Moon times and rain image live from BOM.

Check out Ararat Weather on Facebook, Twitter and Google +

Help support ongoing costs by checking out the ads





Follow @AraratWeather